createdAt,value
2023-01-09T00:01:25.604Z,0.60
2023-01-09T00:03:53.406Z,0.98
2023-01-09T00:06:21.595Z,0.63
2023-01-09T00:08:49.511Z,1.20
2023-01-09T00:11:18.754Z,0.57
2023-01-09T00:13:47.192Z,0.77
2023-01-09T00:16:15.026Z,0.50
2023-01-09T00:18:42.857Z,0.50
2023-01-09T00:21:12.937Z,0.50
2023-01-09T00:23:41.034Z,0.88
2023-01-09T00:26:10.855Z,0.68
2023-01-09T00:28:40.389Z,0.43
2023-01-09T00:31:09.659Z,0.85
2023-01-09T00:33:40.447Z,0.68
2023-01-09T00:36:08.842Z,0.60
2023-01-09T00:38:37.297Z,0.60
2023-01-09T00:41:07.128Z,0.80
2023-01-09T00:43:39.566Z,0.70
2023-01-09T00:46:09.287Z,0.60
2023-01-09T00:48:39.860Z,0.88
2023-01-09T00:51:08.247Z,0.80
2023-01-09T00:53:38.877Z,1.30
2023-01-09T00:56:11.313Z,0.75
2023-01-09T00:58:39.179Z,0.73
2023-01-09T01:01:08.815Z,0.70
2023-01-09T01:03:36.866Z,0.80
2023-01-09T01:06:22.491Z,0.60
2023-01-09T01:08:50.458Z,0.93
2023-01-09T01:11:18.247Z,1.55
2023-01-09T01:13:46.055Z,0.45
2023-01-09T01:16:15.317Z,0.57
2023-01-09T01:18:43.252Z,0.80
2023-01-09T01:21:14.184Z,0.68
2023-01-09T01:23:42.342Z,0.70
2023-01-09T01:26:13.524Z,0.68
2023-01-09T01:28:42.285Z,0.68
2023-01-09T01:31:10.609Z,0.80
2023-01-09T01:33:39.915Z,0.80
2023-01-09T01:36:09.875Z,0.70
2023-01-09T01:38:37.752Z,0.80
2023-01-09T01:41:06.999Z,1.00
2023-01-09T01:43:53.736Z,0.73
2023-01-09T01:46:21.521Z,1.48
2023-01-09T01:48:55.486Z,0.77
2023-01-09T01:51:25.905Z,0.60
2023-01-09T01:53:58.575Z,0.70
2023-01-09T01:56:29.828Z,0.60
2023-01-09T01:59:02.684Z,0.82
2023-01-09T02:01:31.482Z,0.60
2023-01-09T02:04:03.979Z,0.80
2023-01-09T02:06:34.502Z,0.80
2023-01-09T02:09:04.340Z,0.70
2023-01-09T02:11:32.221Z,0.80
2023-01-09T02:14:01.377Z,0.80
2023-01-09T02:16:42.235Z,0.88
2023-01-09T02:19:30.678Z,0.70
2023-01-09T02:22:08.609Z,0.65
2023-01-09T02:25:04.649Z,1.00
2023-01-09T02:28:00.445Z,0.85
2023-01-09T02:30:36.188Z,0.60
2023-01-09T02:33:21.592Z,0.80
2023-01-09T02:36:04.351Z,2.08
2023-01-09T02:38:37.501Z,0.80
2023-01-09T02:41:12.350Z,0.77
2023-01-09T02:43:41.653Z,0.70
2023-01-09T02:46:20.473Z,0.63
2023-01-09T02:48:51.976Z,1.00
2023-01-09T02:51:28.884Z,1.05
2023-01-09T02:54:12.757Z,1.10
2023-01-09T02:57:15.619Z,1.77
2023-01-09T02:59:57.583Z,1.10
2023-01-09T03:02:41.273Z,1.10
2023-01-09T03:05:15.315Z,1.23
2023-01-09T03:07:48.603Z,1.13
2023-01-09T03:10:22.418Z,1.33
2023-01-09T03:12:54.291Z,2.92
2023-01-09T03:15:26.990Z,2.35
2023-01-09T03:17:56.879Z,1.75
2023-01-09T03:20:27.826Z,1.40
2023-01-09T03:22:58.009Z,1.77
2023-01-09T03:25:27.580Z,1.92
2023-01-09T03:27:58.006Z,1.40
2023-01-09T03:30:27.622Z,1.70
2023-01-09T03:32:57.429Z,1.88
2023-01-09T03:35:25.882Z,1.52
2023-01-09T03:37:53.910Z,1.60
2023-01-09T03:40:22.311Z,1.90
2023-01-09T03:42:50.057Z,1.30
2023-01-09T03:45:17.978Z,1.52
2023-01-09T03:47:45.741Z,1.50
2023-01-09T03:50:14.962Z,1.30
2023-01-09T03:52:42.758Z,1.30
2023-01-09T03:55:10.735Z,1.45
2023-01-09T03:57:38.524Z,1.58
2023-01-09T04:00:08.473Z,1.10
2023-01-09T04:02:36.236Z,1.08
2023-01-09T04:05:04.069Z,1.10
2023-01-09T04:07:33.224Z,1.80
2023-01-09T04:10:01.062Z,1.42
2023-01-09T04:12:29.013Z,1.15
2023-01-09T04:14:56.742Z,1.25
2023-01-09T04:17:24.557Z,0.82
2023-01-09T04:19:52.340Z,1.20
2023-01-09T04:22:20.219Z,1.10
2023-01-09T04:24:49.411Z,1.30
2023-01-09T04:27:17.195Z,0.90
2023-01-09T04:29:44.983Z,1.08
2023-01-09T04:32:12.765Z,1.05
2023-01-09T04:34:40.563Z,1.20
2023-01-09T04:37:08.665Z,1.10
2023-01-09T04:39:37.297Z,1.00
2023-01-09T04:42:06.544Z,1.40
2023-01-09T04:44:34.337Z,1.50
2023-01-09T04:47:02.117Z,1.08
2023-01-09T04:49:29.961Z,1.48
2023-01-09T04:51:57.878Z,1.20
2023-01-09T04:54:25.701Z,1.10
2023-01-09T04:56:53.439Z,1.42
2023-01-09T04:59:22.863Z,1.35
2023-01-09T05:01:52.172Z,1.83
2023-01-09T05:04:20.089Z,1.33
2023-01-09T05:06:47.959Z,1.65
2023-01-09T05:09:15.740Z,1.13
2023-01-09T05:11:43.568Z,1.20
2023-01-09T05:14:12.840Z,1.10
2023-01-09T05:16:42.063Z,1.90
2023-01-09T05:19:09.869Z,1.00
2023-01-09T05:21:37.844Z,1.10
2023-01-09T05:24:06.116Z,1.52
2023-01-09T05:26:33.954Z,1.42
2023-01-09T05:29:01.754Z,1.45
2023-01-09T05:31:29.555Z,1.25
2023-01-09T05:33:59.321Z,1.23
2023-01-09T05:36:28.206Z,1.35
2023-01-09T05:38:57.805Z,1.70
2023-01-09T05:41:26.464Z,1.38
2023-01-09T05:43:54.487Z,1.13
2023-01-09T05:46:22.246Z,1.00
2023-01-09T05:48:50.099Z,1.40
2023-01-09T05:51:19.416Z,1.10
2023-01-09T05:53:47.217Z,1.15
2023-01-09T05:56:15.104Z,1.05
2023-01-09T05:58:43.182Z,1.33
2023-01-09T06:01:11.106Z,1.27
2023-01-09T06:03:38.972Z,2.00
2023-01-09T06:06:07.433Z,1.17
2023-01-09T06:08:36.582Z,1.13
2023-01-09T06:11:04.404Z,1.33
2023-01-09T06:13:32.563Z,1.23
2023-01-09T06:16:00.366Z,1.95
2023-01-09T06:18:28.195Z,0.93
2023-01-09T06:20:56.035Z,1.80
2023-01-09T06:23:24.002Z,1.27
2023-01-09T06:25:53.134Z,1.73
2023-01-09T06:28:20.917Z,1.33
2023-01-09T06:30:51.792Z,1.40
2023-01-09T06:33:20.006Z,1.75
2023-01-09T06:35:47.814Z,1.50
2023-01-09T06:38:15.616Z,1.52
2023-01-09T06:40:43.567Z,1.35
2023-01-09T06:43:12.703Z,1.30
2023-01-09T06:45:40.874Z,1.25
2023-01-09T06:48:08.907Z,2.08
2023-01-09T06:50:36.826Z,1.50
2023-01-09T06:53:04.824Z,1.10
2023-01-09T06:55:32.572Z,1.75
2023-01-09T06:58:00.449Z,2.22
2023-01-09T07:00:29.742Z,1.42
2023-01-09T07:02:57.748Z,1.67
2023-01-09T07:05:25.601Z,1.75
2023-01-09T07:07:53.369Z,1.67
2023-01-09T07:10:21.149Z,1.95
2023-01-09T07:12:48.918Z,2.03
2023-01-09T07:15:16.793Z,1.88
2023-01-09T07:17:46.048Z,2.40
2023-01-09T07:20:13.830Z,1.88
2023-01-09T07:22:42.940Z,1.52
2023-01-09T07:25:10.889Z,1.52
2023-01-09T07:27:38.724Z,1.55
2023-01-09T07:30:08.049Z,1.85
2023-01-09T07:32:36.209Z,1.70
2023-01-09T07:35:05.949Z,1.60
2023-01-09T07:37:34.236Z,1.60
2023-01-09T07:40:02.118Z,2.05
2023-01-09T07:42:29.954Z,2.40
2023-01-09T07:44:57.748Z,1.42
2023-01-09T07:47:25.510Z,1.67
2023-01-09T07:49:53.311Z,1.55
2023-01-09T07:52:23.044Z,1.67
2023-01-09T07:54:51.020Z,1.65
2023-01-09T07:57:18.777Z,1.50
2023-01-09T07:59:46.756Z,1.17
2023-01-09T08:02:14.623Z,1.17
2023-01-09T08:04:42.408Z,1.55
2023-01-09T08:07:10.333Z,1.77
2023-01-09T08:09:39.659Z,1.98
2023-01-09T08:12:07.619Z,1.65
2023-01-09T08:14:36.070Z,1.63
2023-01-09T08:17:03.945Z,2.13
2023-01-09T08:19:31.780Z,2.95
2023-01-09T08:21:59.673Z,1.77
2023-01-09T08:24:27.561Z,1.40
2023-01-09T08:26:56.848Z,1.40
2023-01-09T08:29:24.641Z,1.30
2023-01-09T08:31:52.477Z,1.40
2023-01-09T08:34:20.332Z,1.38
2023-01-09T08:36:48.105Z,1.20
2023-01-09T08:39:15.882Z,1.80
2023-01-09T08:42:00.995Z,1.80
2023-01-09T08:44:47.457Z,1.52
2023-01-09T08:47:17.501Z,2.03
2023-01-09T08:49:45.389Z,1.42
2023-01-09T08:52:13.747Z,1.23
2023-01-09T08:54:41.753Z,1.60
2023-01-09T08:57:09.763Z,1.60
2023-01-09T08:59:38.863Z,1.38
2023-01-09T09:02:06.710Z,1.30
2023-01-09T09:04:34.533Z,1.15
2023-01-09T09:07:02.544Z,1.52
2023-01-09T09:09:30.343Z,1.27
2023-01-09T09:11:58.150Z,1.17
2023-01-09T09:14:43.503Z,1.33
2023-01-09T09:17:12.788Z,1.30
2023-01-09T09:19:42.670Z,1.70
2023-01-09T09:22:10.500Z,1.30
2023-01-09T09:24:38.401Z,1.45
2023-01-09T09:27:06.187Z,1.48
2023-01-09T09:29:34.009Z,1.30
2023-01-09T09:32:01.815Z,1.48
2023-01-09T09:34:31.017Z,1.77
2023-01-09T09:36:58.963Z,1.23
2023-01-09T09:39:26.883Z,1.83
2023-01-09T09:42:34.924Z,1.73
2023-01-09T09:45:27.452Z,1.45
2023-01-09T09:48:08.027Z,1.50
2023-01-09T09:50:55.913Z,1.33
2023-01-09T09:53:30.783Z,1.50
2023-01-09T09:55:58.896Z,1.77
2023-01-09T09:58:32.730Z,1.67
2023-01-09T10:01:02.696Z,1.95
2023-01-09T10:03:38.378Z,1.15
2023-01-09T10:06:12.514Z,1.48
2023-01-09T10:08:48.087Z,1.20
2023-01-09T10:11:21.560Z,1.33
2023-01-09T10:14:22.976Z,1.80
2023-01-09T10:17:08.798Z,2.17
2023-01-09T10:19:49.690Z,1.33
2023-01-09T10:22:26.197Z,1.20
2023-01-09T10:25:05.853Z,1.85
2023-01-09T10:27:44.669Z,1.80
2023-01-09T10:30:29.283Z,1.33
2023-01-09T10:33:07.875Z,1.20
2023-01-09T10:35:50.348Z,1.65
2023-01-09T10:38:24.349Z,1.38
2023-01-09T10:41:01.602Z,1.25
2023-01-09T10:43:35.549Z,1.45
2023-01-09T10:46:08.737Z,1.40
2023-01-09T10:48:39.601Z,1.55
2023-01-09T10:51:19.033Z,2.60
2023-01-09T10:53:52.319Z,2.40
2023-01-09T10:56:24.438Z,1.92
2023-01-09T10:58:53.628Z,1.75
2023-01-09T11:01:26.915Z,1.83
2023-01-09T11:03:54.976Z,1.98
2023-01-09T11:06:26.383Z,1.73
2023-01-09T11:09:00.212Z,1.50
2023-01-09T11:11:36.131Z,1.90
2023-01-09T11:14:14.680Z,1.70
2023-01-09T11:16:53.088Z,1.85
2023-01-09T11:19:21.627Z,2.05
2023-01-09T11:21:49.947Z,1.60
2023-01-09T11:24:36.758Z,1.63
2023-01-09T11:27:25.562Z,1.58
2023-01-09T11:30:15.646Z,2.17
2023-01-09T11:32:44.506Z,1.80
2023-01-09T11:35:20.515Z,2.60
2023-01-09T11:37:51.335Z,2.05
2023-01-09T11:40:22.849Z,1.85
2023-01-09T11:43:06.094Z,2.53
2023-01-09T11:45:35.925Z,1.40
2023-01-09T11:48:18.392Z,1.73
2023-01-09T11:50:56.709Z,2.25
2023-01-09T11:53:25.475Z,1.30
2023-01-09T11:56:01.067Z,1.50
2023-01-09T11:58:34.918Z,2.00
2023-01-09T12:01:15.813Z,1.65
2023-01-09T12:04:02.402Z,1.70
2023-01-09T12:06:37.878Z,1.80
2023-01-09T12:09:09.081Z,1.65
2023-01-09T12:11:49.787Z,2.13
2023-01-09T12:14:35.820Z,2.28
2023-01-09T12:17:28.482Z,1.58
2023-01-09T12:20:25.812Z,1.90
2023-01-09T12:23:02.692Z,2.20
2023-01-09T12:28:31.773Z,1.95
2023-01-09T12:31:10.328Z,1.70
2023-01-09T12:33:48.056Z,1.70
2023-01-09T12:36:23.239Z,2.22
2023-01-09T12:38:56.267Z,1.58
2023-01-09T12:41:45.812Z,1.52
2023-01-09T12:44:35.944Z,2.35
2023-01-09T12:47:22.713Z,1.52
2023-01-09T12:49:59.922Z,1.87
2023-01-09T12:52:35.646Z,1.52
2023-01-09T12:55:13.380Z,1.92
2023-01-09T12:57:44.872Z,2.25
2023-01-09T13:00:19.854Z,2.17
2023-01-09T13:03:03.594Z,2.72
2023-01-09T13:05:43.915Z,1.77
2023-01-09T13:08:16.678Z,1.80
2023-01-09T13:10:48.736Z,2.08
2023-01-09T13:13:21.711Z,2.00
2023-01-09T13:15:54.599Z,2.22
2023-01-09T13:18:28.720Z,2.42
2023-01-09T13:20:58.041Z,2.10
2023-01-09T13:23:39.805Z,2.40
2023-01-09T13:26:11.772Z,2.35
2023-01-09T13:28:46.996Z,1.63
2023-01-09T13:31:33.745Z,2.00
2023-01-09T13:34:04.582Z,2.22
2023-01-09T13:36:39.429Z,1.92
2023-01-09T13:39:08.014Z,2.28
2023-01-09T13:42:06.316Z,1.88
2023-01-09T13:44:34.657Z,3.25
2023-01-09T13:47:04.557Z,2.42
2023-01-09T13:49:54.010Z,2.25
2023-01-09T13:52:36.555Z,2.85
2023-01-09T13:55:36.088Z,2.50
2023-01-09T13:58:24.452Z,2.58
2023-01-09T14:00:55.364Z,3.60
2023-01-09T14:03:29.466Z,2.58
2023-01-09T14:06:25.166Z,2.50
2023-01-09T14:09:18.225Z,1.90
2023-01-09T14:11:47.768Z,2.40
2023-01-09T14:14:27.417Z,2.78
2023-01-09T14:16:55.709Z,3.33
2023-01-09T14:19:35.394Z,2.60
2023-01-09T14:22:04.776Z,2.53
2023-01-09T14:24:41.047Z,2.72
2023-01-09T14:27:47.842Z,2.50
2023-01-09T14:30:33.417Z,3.65
2023-01-09T14:33:03.471Z,2.88
2023-01-09T14:35:42.894Z,2.50
2023-01-09T14:38:30.301Z,2.58
2023-01-09T14:43:46.545Z,2.38
2023-01-09T14:46:17.487Z,3.75
2023-01-09T14:48:58.299Z,3.00
2023-01-09T14:51:32.194Z,2.60
2023-01-09T14:54:02.204Z,2.72
2023-01-09T14:56:31.936Z,2.83
2023-01-09T14:59:07.615Z,2.53
2023-01-09T15:01:37.464Z,3.00
2023-01-09T15:04:12.686Z,3.70
2023-01-09T15:06:44.537Z,3.40
2023-01-09T15:09:23.030Z,3.78
2023-01-09T15:11:51.639Z,3.05
2023-01-09T15:14:30.013Z,3.67
2023-01-09T15:16:58.268Z,2.70
2023-01-09T15:19:26.333Z,3.35
2023-01-09T15:22:01.342Z,2.95
2023-01-09T15:24:32.378Z,3.58
2023-01-09T15:27:02.492Z,3.17
2023-01-09T15:29:30.622Z,3.83
2023-01-09T15:32:04.554Z,3.63
2023-01-09T15:34:33.888Z,3.55
2023-01-09T15:37:03.610Z,2.80
2023-01-09T15:39:37.371Z,3.20
2023-01-09T15:42:23.392Z,3.63
2023-01-09T15:44:53.841Z,3.05
2023-01-09T15:47:27.792Z,3.13
2023-01-09T15:49:57.848Z,3.78
2023-01-09T15:52:27.337Z,4.30
2023-01-09T15:54:55.652Z,3.30
2023-01-09T15:57:35.855Z,3.05
2023-01-09T16:00:42.513Z,2.92
2023-01-09T16:03:21.525Z,3.50
2023-01-09T16:05:57.970Z,3.40
2023-01-09T16:08:32.697Z,3.20
2023-01-09T16:11:04.098Z,3.03
2023-01-09T16:13:34.521Z,3.38
2023-01-09T16:16:03.802Z,4.10
2023-01-09T16:18:34.564Z,3.50
2023-01-09T16:21:05.457Z,3.28
2023-01-09T16:23:36.848Z,3.40
2023-01-09T16:26:06.987Z,3.85
2023-01-09T16:28:34.783Z,3.50
2023-01-09T16:31:05.138Z,3.55
2023-01-09T16:33:34.175Z,4.45
2023-01-09T16:36:03.418Z,2.75
2023-01-09T16:38:31.301Z,3.95
2023-01-09T16:41:22.506Z,3.00
2023-01-09T16:43:51.680Z,3.25
2023-01-09T16:46:21.191Z,3.50
2023-01-09T16:48:49.186Z,3.38
2023-01-09T16:51:19.382Z,3.30
2023-01-09T16:53:47.214Z,2.90
2023-01-09T16:56:19.995Z,4.10
2023-01-09T16:58:47.948Z,2.95
2023-01-09T17:01:16.043Z,3.08
2023-01-09T17:03:44.574Z,2.42
2023-01-09T17:06:17.162Z,2.60
2023-01-09T17:08:45.310Z,2.85
2023-01-09T17:11:21.638Z,2.28
2023-01-09T17:13:49.524Z,2.42
2023-01-09T17:16:18.512Z,3.30
2023-01-09T17:18:46.637Z,3.00
2023-01-09T17:21:18.573Z,2.15
2023-01-09T17:23:46.671Z,2.40
2023-01-09T17:26:37.324Z,3.35
2023-01-09T17:29:05.647Z,3.05
2023-01-09T17:31:33.512Z,3.47
2023-01-09T17:34:01.367Z,3.15
2023-01-09T17:36:32.397Z,2.70
2023-01-09T17:39:00.723Z,2.55
2023-01-09T17:41:31.677Z,2.10
2023-01-09T17:44:00.625Z,3.03
2023-01-09T17:46:31.112Z,2.40
2023-01-09T17:48:59.768Z,2.90
2023-01-09T17:51:27.612Z,2.22
2023-01-09T17:53:55.470Z,2.38
2023-01-09T17:56:26.865Z,2.75
2023-01-09T17:58:56.436Z,2.42
2023-01-09T18:01:24.306Z,2.85
2023-01-09T18:03:52.211Z,2.42
2023-01-09T18:06:22.371Z,2.80
2023-01-09T18:08:50.649Z,2.30
2023-01-09T18:11:20.373Z,2.53
2023-01-09T18:13:49.979Z,3.25
2023-01-09T18:16:20.965Z,2.70
2023-01-09T18:18:48.836Z,3.13
2023-01-09T18:21:20.143Z,2.20
2023-01-09T18:23:50.021Z,2.15
2023-01-09T18:26:21.234Z,2.67
2023-01-09T18:28:50.881Z,3.22
2023-01-09T18:31:22.819Z,2.30
2023-01-09T18:33:52.889Z,2.20
2023-01-09T18:36:22.013Z,2.17
2023-01-09T18:38:53.749Z,2.50
2023-01-09T18:41:22.595Z,2.35
2023-01-09T18:43:50.847Z,2.20
2023-01-09T18:46:24.067Z,1.92
2023-01-09T18:48:53.295Z,2.17
2023-01-09T18:51:22.053Z,2.08
2023-01-09T18:53:49.927Z,1.95
2023-01-09T18:56:19.422Z,2.30
2023-01-09T18:58:47.285Z,1.60
2023-01-09T19:01:15.413Z,1.90
2023-01-09T19:03:45.330Z,1.95
2023-01-09T19:06:13.475Z,2.40
2023-01-09T19:08:41.451Z,1.52
2023-01-09T19:11:09.400Z,2.03
2023-01-09T19:13:38.245Z,1.55
2023-01-09T19:16:08.066Z,1.50
2023-01-09T19:18:37.382Z,1.55
2023-01-09T19:21:12.672Z,1.95
2023-01-09T19:23:41.828Z,2.05
2023-01-09T19:26:16.182Z,1.73
2023-01-09T19:28:45.465Z,1.88
2023-01-09T19:31:13.634Z,1.52
2023-01-09T19:33:41.536Z,2.75
2023-01-09T19:36:11.026Z,1.27
2023-01-09T19:38:38.958Z,1.80
2023-01-09T19:41:13.192Z,1.70
2023-01-09T19:43:41.273Z,1.40
2023-01-09T19:46:10.697Z,1.88
2023-01-09T19:48:38.829Z,2.13
2023-01-09T19:51:08.941Z,1.60
2023-01-09T19:53:38.510Z,1.90
2023-01-09T19:56:10.900Z,2.20
2023-01-09T19:58:38.830Z,2.08
2023-01-09T20:01:08.944Z,2.05
2023-01-09T20:03:37.824Z,3.17
2023-01-09T20:06:07.229Z,2.33
2023-01-09T20:08:35.169Z,2.40
2023-01-09T20:11:06.670Z,1.98
2023-01-09T20:13:34.854Z,2.65
2023-01-09T20:16:03.715Z,2.33
2023-01-09T20:18:32.742Z,2.83
2023-01-09T20:21:00.530Z,2.53
2023-01-09T20:23:29.458Z,2.63
2023-01-09T20:25:59.777Z,2.97
2023-01-09T20:28:29.439Z,2.63
2023-01-09T20:30:57.289Z,3.28
2023-01-09T20:33:25.229Z,2.75
2023-01-09T20:35:53.091Z,3.63
2023-01-09T20:38:20.986Z,2.67
2023-01-09T20:40:48.815Z,3.20
2023-01-09T20:43:17.430Z,3.03
2023-01-09T20:45:46.668Z,2.95
2023-01-09T20:48:14.627Z,3.92
2023-01-09T20:50:42.601Z,3.10
2023-01-09T20:53:10.395Z,3.42
2023-01-09T20:55:38.251Z,3.70
2023-01-09T20:58:06.046Z,2.88
2023-01-09T21:00:33.888Z,2.90
2023-01-09T21:03:04.465Z,3.10
2023-01-09T21:05:32.269Z,2.90
2023-01-09T21:08:00.091Z,2.20
2023-01-09T21:10:27.929Z,2.80
2023-01-09T21:12:55.722Z,2.08
2023-01-09T21:15:24.590Z,2.25
2023-01-09T21:17:52.517Z,2.17
2023-01-09T21:20:21.931Z,3.20
2023-01-09T21:22:50.357Z,2.15
2023-01-09T21:25:18.232Z,2.10
2023-01-09T21:27:47.463Z,2.35
2023-01-09T21:30:15.686Z,2.63
2023-01-09T21:32:43.521Z,2.78
2023-01-09T21:35:11.305Z,2.30
2023-01-09T21:37:40.533Z,2.17
2023-01-09T21:40:13.100Z,2.70
2023-01-09T21:42:58.208Z,3.38
2023-01-09T21:45:42.807Z,2.28
2023-01-09T21:48:10.661Z,2.80
2023-01-09T21:50:38.475Z,3.20
2023-01-09T21:53:07.829Z,2.70
2023-01-09T21:55:36.021Z,2.42
2023-01-09T21:58:04.332Z,2.22
2023-01-09T22:00:32.717Z,3.33
2023-01-09T22:03:01.261Z,3.13
2023-01-09T22:05:29.132Z,2.40
2023-01-09T22:07:57.356Z,2.58
2023-01-09T22:10:26.700Z,2.55
2023-01-09T22:13:14.114Z,2.40
2023-01-09T22:18:10.155Z,2.67
2023-01-09T22:20:37.961Z,3.10
2023-01-09T22:23:05.818Z,2.78
2023-01-09T22:25:37.254Z,2.75
2023-01-09T22:28:05.365Z,3.47
2023-01-09T22:30:33.374Z,3.00
2023-01-09T22:33:02.752Z,3.38
2023-01-09T22:35:30.512Z,3.08
2023-01-09T22:37:58.327Z,2.67
2023-01-09T22:40:26.151Z,3.08
2023-01-09T22:42:55.730Z,2.50
2023-01-09T22:45:23.746Z,3.47
2023-01-09T22:47:51.609Z,3.35
2023-01-09T22:50:19.762Z,3.20
2023-01-09T22:52:48.535Z,2.92
2023-01-09T22:55:16.864Z,3.22
2023-01-09T22:57:44.790Z,3.10
2023-01-09T23:00:15.810Z,2.78
2023-01-09T23:02:43.662Z,2.97
2023-01-09T23:05:11.740Z,2.95
2023-01-09T23:07:39.604Z,3.58
2023-01-09T23:10:08.598Z,2.30
2023-01-09T23:12:36.409Z,2.67
2023-01-09T23:15:04.376Z,2.90
2023-01-09T23:17:33.574Z,2.67
2023-01-09T23:20:01.421Z,2.42
2023-01-09T23:22:29.215Z,2.58
2023-01-09T23:24:56.980Z,2.95
2023-01-09T23:27:24.801Z,2.88
2023-01-09T23:29:52.597Z,2.65
2023-01-09T23:32:20.433Z,2.30
2023-01-09T23:34:50.461Z,2.85
2023-01-09T23:37:18.298Z,2.45
2023-01-09T23:39:46.122Z,2.15
2023-01-09T23:42:31.723Z,2.88
2023-01-09T23:44:59.540Z,2.35
2023-01-09T23:47:27.326Z,3.33
2023-01-09T23:49:56.563Z,2.65
2023-01-09T23:52:24.451Z,2.85
2023-01-09T23:54:53.963Z,2.80
2023-01-09T23:57:21.758Z,3.13
2023-01-09T23:59:49.558Z,2.70
